sensor_id;sensor_type;location;lat;lon;timestamp;pressure;altitude;pressure_sealevel;temperature;humidity
78843;BME280;70542;53.774;-0.352;2024-03-25T07:31:45;100300;;;10.191;43
78843;BME280;70542;53.774;-0.352;2024-03-25T07:37:55;100300;;;11.374;40
78843;BME280;70542;53.774;-0.352;2024-03-25T07:44:04;100290;;;11.743;40
78843;BME280;70542;53.774;-0.352;2024-03-25T07:50:17;100280;;;11.675;39
78843;BME280;70542;53.774;-0.352;2024-03-25T07:56:52;100280;;;11.658;39
78843;BME280;70542;53.774;-0.352;2024-03-25T08:03:11;100270;;;11.738;39
78843;BME280;70542;53.774;-0.352;2024-03-25T08:09:16;100270;;;11.384;39
78843;BME280;70542;53.774;-0.352;2024-03-25T08:15:25;100260;;;10.511;40
78843;BME280;70542;53.774;-0.352;2024-03-25T08:21:43;100260;;;11.845;38
78843;BME280;70542;53.774;-0.352;2024-03-25T08:28:00;100250;;;12.171;38
78843;BME280;70542;53.774;-0.352;2024-03-25T08:33:57;100250;;;11.693;38
78843;BME280;70542;53.774;-0.352;2024-03-25T08:39:55;100240;;;11.512;39
78843;BME280;70542;53.774;-0.352;2024-03-25T08:46:03;100240;;;12.39;38
78843;BME280;70542;53.774;-0.352;2024-03-25T08:52:19;100240;;;12.074;38
78843;BME280;70542;53.774;-0.352;2024-03-25T08:58:48;100240;;;13.009;37
78843;BME280;70542;53.774;-0.352;2024-03-25T09:04:55;100240;;;12.744;37
78843;BME280;70542;53.774;-0.352;2024-03-25T09:11:05;100240;;;13.191;36
78843;BME280;70542;53.774;-0.352;2024-03-25T09:17:18;100230;;;13.465;36
78843;BME280;70542;53.774;-0.352;2024-03-25T09:23:34;100230;;;13.711;36
78843;BME280;70542;53.774;-0.352;2024-03-25T09:29:54;100220;;;13.101;37
78843;BME280;70542;53.774;-0.352;2024-03-25T09:36:10;100220;;;12.935;38
78843;BME280;70542;53.774;-0.352;2024-03-25T09:42:34;100210;;;13.094;38
78843;BME280;70542;53.774;-0.352;2024-03-25T09:48:53;100200;;;12.896;38
78843;BME280;70542;53.774;-0.352;2024-03-25T09:55:06;100190;;;13.512;36
78843;BME280;70542;53.774;-0.352;2024-03-25T10:01:17;100180;;;12.767;37
78843;BME280;70542;53.774;-0.352;2024-03-25T10:07:32;100170;;;13.886;36
78843;BME280;70542;53.774;-0.352;2024-03-25T10:13:44;100170;;;13.742;36
78843;BME280;70542;53.774;-0.352;2024-03-25T10:19:58;100170;;;13.959;35
78843;BME280;70542;53.774;-0.352;2024-03-25T10:26:25;100170;;;14.085;36
78843;BME280;70542;53.774;-0.352;2024-03-25T10:32:35;100160;;;14.403;36
78843;BME280;70542;53.774;-0.352;2024-03-25T10:38:49;100150;;;14.738;35
78843;BME280;70542;53.774;-0.352;2024-03-25T10:44:50;100140;;;14.878;35
78843;BME280;70542;53.774;-0.352;2024-03-25T10:51:01;100140;;;15.335;33
78843;BME280;70542;53.774;-0.352;2024-03-25T10:57:17;100130;;;15.522;33
78843;BME280;70542;53.774;-0.352;2024-03-25T11:03:20;100130;;;15.797;32
78843;BME280;70542;53.774;-0.352;2024-03-25T11:09:23;100130;;;16.186;32
78843;BME280;70542;53.774;-0.352;2024-03-25T11:15:36;100130;;;15.066;32
78843;BME280;70542;53.774;-0.352;2024-03-25T11:21:40;100130;;;15.208;32
78843;BME280;70542;53.774;-0.352;2024-03-25T11:27:38;100120;;;15.181;33
78843;BME280;70542;53.774;-0.352;2024-03-25T11:33:48;100120;;;16.115;31
78843;BME280;70542;53.774;-0.352;2024-03-25T11:40:02;100110;;;16.389;31
78843;BME280;70542;53.774;-0.352;2024-03-25T11:52:30;100090;;;16.314;31
78843;BME280;70542;53.774;-0.352;2024-03-25T11:58:27;100090;;;16.015;32
78843;BME280;70542;53.774;-0.352;2024-03-25T12:04:27;100080;;;16.079;31
78843;BME280;70542;53.774;-0.352;2024-03-25T12:10:29;100080;;;16.426;32
78843;BME280;70542;53.774;-0.352;2024-03-25T12:16:38;100060;;;15.615;32
78843;BME280;70542;53.774;-0.352;2024-03-25T12:22:53;100060;;;15.408;33
78843;BME280;70542;53.774;-0.352;2024-03-25T12:29:07;100050;;;15.748;34
78843;BME280;70542;53.774;-0.352;2024-03-25T12:35:18;100050;;;15.713;33
78843;BME280;70542;53.774;-0.352;2024-03-25T12:41:21;100040;;;15.373;34
78843;BME280;70542;53.774;-0.352;2024-03-25T12:47:40;100040;;;14.895;37
78843;BME280;70542;53.774;-0.352;2024-03-25T12:53:49;100030;;;15.14;37
78843;BME280;70542;53.774;-0.352;2024-03-25T12:59:58;100020;;;14.856;37
78843;BME280;70542;53.774;-0.352;2024-03-25T13:06:17;100010;;;14.741;36
78843;BME280;70542;53.774;-0.352;2024-03-25T13:12:15;100000;;;15.402;36
78843;BME280;70542;53.774;-0.352;2024-03-25T13:18:24;99990;;;14.919;36
78843;BME280;70542;53.774;-0.352;2024-03-25T13:24:20;99980;;;15.538;35
78843;BME280;70542;53.774;-0.352;2024-03-25T13:30:34;99970;;;15.278;37
78843;BME280;70542;53.774;-0.352;2024-03-25T13:36:31;99970;;;15.977;36
78843;BME280;70542;53.774;-0.352;2024-03-25T13:42:40;99960;;;16.303;35
78843;BME280;70542;53.774;-0.352;2024-03-25T13:48:37;99950;;;16.261;35
78843;BME280;70542;53.774;-0.352;2024-03-25T13:55:02;99940;;;16.366;34
78843;BME280;70542;53.774;-0.352;2024-03-25T14:01:17;99940;;;16.156;35
78843;BME280;70542;53.774;-0.352;2024-03-25T14:07:15;99930;;;15.695;35
78843;BME280;70542;53.774;-0.352;2024-03-25T14:13:24;99920;;;14.935;36
78843;BME280;70542;53.774;-0.352;2024-03-25T14:19:21;99920;;;15.332;36
78843;BME280;70542;53.774;-0.352;2024-03-25T14:25:30;99910;;;14.931;37
78843;BME280;70542;53.774;-0.352;2024-03-25T14:31:41;99910;;;14.791;37
78843;BME280;70542;53.774;-0.352;2024-03-25T14:37:55;99900;;;15.48;36
78843;BME280;70542;53.774;-0.352;2024-03-25T14:44:04;99880;;;14.461;37
78843;BME280;70542;53.774;-0.352;2024-03-25T14:50:14;99860;;;14.68;37
78843;BME280;70542;53.774;-0.352;2024-03-25T14:56:23;99860;;;14.252;36
78843;BME280;70542;53.774;-0.352;2024-03-25T15:02:20;99850;;;15.78;34
78843;BME280;70542;53.774;-0.352;2024-03-25T15:08:31;99840;;;15.892;33
78843;BME280;70542;53.774;-0.352;2024-03-25T15:14:55;99840;;;15.704;32
78843;BME280;70542;53.774;-0.352;2024-03-25T15:21:05;99830;;;16.136;32
78843;BME280;70542;53.774;-0.352;2024-03-25T15:27:15;99820;;;15.392;33
78843;BME280;70542;53.774;-0.352;2024-03-25T15:33:24;99810;;;15.918;32
78843;BME280;70542;53.774;-0.352;2024-03-25T15:39:34;99810;;;15.392;33
78843;BME280;70542;53.774;-0.352;2024-03-25T15:52:03;99810;;;14.595;36
78843;BME280;70542;53.774;-0.352;2024-03-25T15:58:19;99800;;;13.628;37
78843;BME280;70542;53.774;-0.352;2024-03-25T16:04:48;99790;;;13.475;38
78843;BME280;70542;53.774;-0.352;2024-03-25T16:16:59;99780;;;13.933;38
78843;BME280;70542;53.774;-0.352;2024-03-25T16:22:57;99780;;;14.37;37
78843;BME280;70542;53.774;-0.352;2024-03-25T16:29:07;99770;;;14.528;36
78843;BME280;70542;53.774;-0.352;2024-03-25T16:35:20;99770;;;13.887;37
78843;BME280;70542;53.774;-0.352;2024-03-25T16:41:29;99770;;;14.666;37
78843;BME280;70542;53.774;-0.352;2024-03-25T16:47:31;99770;;;13.322;38
78843;BME280;70542;53.774;-0.352;2024-03-25T16:53:27;99760;;;14.245;37
78843;BME280;70542;53.774;-0.352;2024-03-25T16:59:41;99760;;;13.95;38
78843;BME280;70542;53.774;-0.352;2024-03-25T17:05:52;99750;;;14.22;37
78843;BME280;70542;53.774;-0.352;2024-03-25T17:12:15;99740;;;15.034;36
78843;BME280;70542;53.774;-0.352;2024-03-25T17:18:17;99740;;;15.036;36
78843;BME280;70542;53.774;-0.352;2024-03-25T17:24:21;99740;;;14.579;36
78843;BME280;70542;53.774;-0.352;2024-03-25T17:30:38;99730;;;14.246;37
78843;BME280;70542;53.774;-0.352;2024-03-25T17:36:47;99740;;;14.739;37
78843;BME280;70542;53.774;-0.352;2024-03-25T17:42:44;99730;;;13.887;37
78843;BME280;70542;53.774;-0.352;2024-03-25T17:48:47;99720;;;13.745;37
78843;BME280;70542;53.774;-0.352;2024-03-25T17:54:47;99720;;;13.68;37
78843;BME280;70542;53.774;-0.352;2024-03-25T18:00:57;99730;;;13.107;38
78843;BME280;70542;53.774;-0.352;2024-03-25T18:07:14;99740;;;14.135;36
78843;BME280;70542;53.774;-0.352;2024-03-25T18:13:31;99740;;;14.342;36
78843;BME280;70542;53.774;-0.352;2024-03-25T18:19:46;99740;;;14.928;35
78843;BME280;70542;53.774;-0.352;2024-03-25T18:25:43;99740;;;13.714;37
78843;BME280;70542;53.774;-0.352;2024-03-25T18:32:09;99740;;;13.904;37
78843;BME280;70542;53.774;-0.352;2024-03-25T18:38:19;99740;;;14.142;37
78843;BME280;70542;53.774;-0.352;2024-03-25T18:44:28;99740;;;13.861;37
78843;BME280;70542;53.774;-0.352;2024-03-25T18:50:26;99740;;;14.296;38
78843;BME280;70542;53.774;-0.352;2024-03-25T18:56:41;99740;;;14.034;37
78843;BME280;70542;53.774;-0.352;2024-03-25T19:03:09;99750;;;13.093;41
78843;BME280;70542;53.774;-0.352;2024-03-25T19:09:17;99750;;;12.381;42
78843;BME280;70542;53.774;-0.352;2024-03-25T19:15:27;99740;;;13.113;41
78843;BME280;70542;53.774;-0.352;2024-03-25T19:21:31;99740;;;13.039;41
78843;BME280;70542;53.774;-0.352;2024-03-25T19:27:34;99740;;;12.785;41
78843;BME280;70542;53.774;-0.352;2024-03-25T19:34:05;99740;;;13.305;41
78843;BME280;70542;53.774;-0.352;2024-03-25T19:40:13;99740;;;12.901;41
78843;BME280;70542;53.774;-0.352;2024-03-25T19:46:39;99740;;;13.554;40
78843;BME280;70542;53.774;-0.352;2024-03-25T19:52:59;99740;;;13.728;39
78843;BME280;70542;53.774;-0.352;2024-03-25T19:59:17;99750;;;14.325;38
78843;BME280;70542;53.774;-0.352;2024-03-25T20:05:40;99740;;;13.004;40
78843;BME280;70542;53.774;-0.352;2024-03-25T20:12:03;99750;;;14.128;40
78843;BME280;70542;53.774;-0.352;2024-03-25T20:18:29;99750;;;14.218;40
78843;BME280;70542;53.774;-0.352;2024-03-25T20:24:48;99750;;;13.693;42
78843;BME280;70542;53.774;-0.352;2024-03-25T20:30:57;99750;;;13.537;42
78843;BME280;70542;53.774;-0.352;2024-03-25T20:37:17;99740;;;14.289;42
78843;BME280;70542;53.774;-0.352;2024-03-25T20:43:35;99740;;;13.787;41
78843;BME280;70542;53.774;-0.352;2024-03-25T20:50:03;99740;;;13.086;42
78843;BME280;70542;53.774;-0.352;2024-03-25T20:55:49;99730;;;12.935;43
78843;BME280;70542;53.774;-0.352;2024-03-25T21:01:54;99740;;;13.438;42
78843;BME280;70542;53.774;-0.352;2024-03-25T21:08:11;99740;;;13.45;41
78843;BME280;70542;53.774;-0.352;2024-03-25T21:14:08;99740;;;13.436;41
78843;BME280;70542;53.774;-0.352;2024-03-25T21:20:23;99740;;;14.176;40
78843;BME280;70542;53.774;-0.352;2024-03-25T21:26:32;99740;;;13.524;41
78843;BME280;70542;53.774;-0.352;2024-03-25T21:32:48;99740;;;13.966;40
78843;BME280;70542;53.774;-0.352;2024-03-25T21:39:13;99730;;;12.787;41
78843;BME280;70542;53.774;-0.352;2024-03-25T21:45:55;99730;;;13.57;40
78843;BME280;70542;53.774;-0.352;2024-03-25T21:52:22;99720;;;13.379;40
78843;BME280;70542;53.774;-0.352;2024-03-25T21:58:19;99720;;;13.36;40
78843;BME280;70542;53.774;-0.352;2024-03-25T22:04:32;99720;;;13.067;40
78843;BME280;70542;53.774;-0.352;2024-03-25T22:10:29;99720;;;12.469;41
78843;BME280;70542;53.774;-0.352;2024-03-25T22:16:49;99710;;;12.918;41
78843;BME280;70542;53.774;-0.352;2024-03-25T22:23:07;99710;;;13.339;40
78843;BME280;70542;53.774;-0.352;2024-03-25T22:29:22;99710;;;12.766;40
78843;BME280;70542;53.774;-0.352;2024-03-25T22:35:54;99720;;;13.245;39
78843;BME280;70542;53.774;-0.352;2024-03-25T22:42:04;99710;;;14.031;37
78843;BME280;70542;53.774;-0.352;2024-03-25T22:48:06;99690;;;12.857;39
78843;BME280;70542;53.774;-0.352;2024-03-25T22:54:24;99680;;;12.508;38
78843;BME280;70542;53.774;-0.352;2024-03-25T23:00:38;99680;;;13.023;37
78843;BME280;70542;53.774;-0.352;2024-03-25T23:06:41;99680;;;13.425;36
78843;BME280;70542;53.774;-0.352;2024-03-25T23:12:43;99660;;;13.13;36
78843;BME280;70542;53.774;-0.352;2024-03-25T23:19:05;99660;;;13.49;36
78843;BME280;70542;53.774;-0.352;2024-03-25T23:25:12;99660;;;14.209;36
78843;BME280;70542;53.774;-0.352;2024-03-25T23:31:30;99660;;;12.664;37
78843;BME280;70542;53.774;-0.352;2024-03-25T23:37:48;99660;;;14.54;37
78843;BME280;70542;53.774;-0.352;2024-03-25T23:43:44;99660;;;14.482;37
78843;BME280;70542;53.774;-0.352;2024-03-25T23:49:54;99650;;;13.384;39
78843;BME280;70542;53.774;-0.352;2024-03-25T23:55:58;99640;;;13.723;38
